Time;durP1;ratioP1;P1;durP2;ratioP2;P2;SDS_P1;SDS_P2;PMS_P1;PMS_P2;Temp;Humidity;BMP_temperature;BMP_pressure;BME280_temperature;BME280_humidity;BME280_pressure;Samples;Min_cycle;Max_cycle;Signal;HPM_P1;HPM_P2
2022/05/14 00:01:56;;;;;;;4.18;1.20;;;;;;;;;;4951976;29;20219;-61
2022/05/14 00:04:23;;;;;;;1.00;1.00;;;;;;;;;;4952194;29;20673;-62
2022/05/14 00:06:51;;;;;;;2.83;1.00;;;;;;;;;;4952013;29;20214;-62
2022/05/14 00:09:18;;;;;;;2.20;1.17;;;;;;;;;;4951820;29;20603;-62
2022/05/14 00:14:30;;;;;;;2.87;1.17;;;;;;;;;;4951752;28;20205;-62
2022/05/14 00:16:58;;;;;;;1.90;0.80;;;;;;;;;;4951270;29;20266;-62
2022/05/14 00:19:25;;;;;;;1.00;0.90;;;;;;;;;;4951891;29;20290;-62
2022/05/14 00:21:52;;;;;;;1.08;0.98;;;;;;;;;;4951462;29;20210;-62
2022/05/14 00:24:19;;;;;;;0.88;0.88;;;;;;;;;;4951415;28;20207;-62
2022/05/14 00:26:46;;;;;;;2.30;1.00;;;;;;;;;;4952107;29;20211;-61
2022/05/14 00:29:14;;;;;;;0.90;0.90;;;;;;;;;;4951415;29;20202;-62
2022/05/14 00:31:41;;;;;;;1.80;0.98;;;;;;;;;;4951805;29;20214;-62
2022/05/14 00:34:09;;;;;;;3.00;1.05;;;;;;;;;;4951885;29;20203;-62
2022/05/14 00:36:36;;;;;;;1.77;1.20;;;;;;;;;;4951628;29;20597;-62
2022/05/14 00:39:04;;;;;;;2.80;1.10;;;;;;;;;;4951702;29;20717;-61
2022/05/14 00:41:32;;;;;;;1.23;0.83;;;;;;;;;;4939495;29;20265;-62
2022/05/14 00:44:00;;;;;;;1.03;0.90;;;;;;;;;;4952034;29;20207;-62
2022/05/14 00:46:28;;;;;;;1.30;1.23;;;;;;;;;;4951548;29;20211;-63
2022/05/14 00:48:57;;;;;;;2.90;0.83;;;;;;;;;;4951118;29;20203;-60
2022/05/14 00:51:28;;;;;;;1.00;0.90;;;;;;;;;;4951958;29;20310;-60
2022/05/14 00:53:56;;;;;;;0.90;0.90;;;;;;;;;;4951105;28;20207;-61
2022/05/14 00:56:26;;;;;;;1.00;1.00;;;;;;;;;;4951586;29;20212;-60
2022/05/14 00:58:56;;;;;;;1.07;1.03;;;;;;;;;;4951183;29;20215;-61
2022/05/14 01:01:23;;;;;;;1.23;0.90;;;;;;;;;;4932933;29;20216;-61
2022/05/14 01:03:50;;;;;;;0.90;0.90;;;;;;;;;;4940788;29;20749;-61
2022/05/14 01:06:19;;;;;;;0.87;0.87;;;;;;;;;;4951213;29;20206;-61
2022/05/14 01:08:48;;;;;;;0.97;0.97;;;;;;;;;;4950862;29;20233;-61
2022/05/14 01:11:16;;;;;;;1.77;1.10;;;;;;;;;;4951876;29;20298;-62
2022/05/14 01:13:43;;;;;;;1.93;1.13;;;;;;;;;;4951116;29;20231;-61
2022/05/14 01:16:11;;;;;;;2.97;1.20;;;;;;;;;;4951752;29;20265;-61
2022/05/14 01:18:38;;;;;;;1.17;1.07;;;;;;;;;;4951191;29;20207;-61
2022/05/14 01:21:06;;;;;;;1.40;1.20;;;;;;;;;;4951644;29;20218;-61
2022/05/14 01:26:27;;;;;;;2.57;1.33;;;;;;;;;;4950828;28;20215;-61
2022/05/14 01:26:29;;;;;;;1.17;1.17;;;;;;;;;;4954091;28;20295;-61
2022/05/14 01:28:56;;;;;;;1.87;1.30;;;;;;;;;;4955451;29;20225;-61
2022/05/14 01:31:23;;;;;;;1.10;1.10;;;;;;;;;;4954594;29;20203;-62
2022/05/14 01:33:51;;;;;;;2.10;1.30;;;;;;;;;;4954797;29;20608;-61
2022/05/14 01:36:18;;;;;;;5.27;1.20;;;;;;;;;;4954787;29;20211;-61
2022/05/14 01:38:45;;;;;;;1.00;1.00;;;;;;;;;;4954820;29;20709;-61
2022/05/14 01:41:12;;;;;;;2.30;1.13;;;;;;;;;;4954367;29;20211;-61
2022/05/14 01:43:40;;;;;;;1.40;1.30;;;;;;;;;;4954992;29;20211;-62
2022/05/14 01:46:08;;;;;;;1.10;1.03;;;;;;;;;;4954248;29;20254;-63
2022/05/14 01:48:35;;;;;;;1.00;1.00;;;;;;;;;;4954965;29;20269;-61
2022/05/14 01:51:02;;;;;;;1.40;1.30;;;;;;;;;;4954171;29;20828;-61
2022/05/14 01:53:29;;;;;;;2.47;1.40;;;;;;;;;;4954701;28;20297;-61
2022/05/14 01:55:56;;;;;;;1.03;1.03;;;;;;;;;;4954466;29;20207;-61
2022/05/14 01:58:39;;;;;;;1.50;1.10;;;;;;;;;;4954569;29;20257;-61
2022/05/14 02:01:14;;;;;;;1.27;1.10;;;;;;;;;;4953887;29;20215;-60
2022/05/14 02:03:42;;;;;;;2.00;1.10;;;;;;;;;;4954254;29;20222;-61
2022/05/14 02:06:09;;;;;;;3.50;1.23;;;;;;;;;;4938601;29;20215;-61
2022/05/14 02:08:36;;;;;;;1.07;1.07;;;;;;;;;;4953529;29;20255;-61
2022/05/14 02:11:03;;;;;;;1.30;1.20;;;;;;;;;;4953226;29;20203;-61
2022/05/14 02:13:30;;;;;;;1.77;0.90;;;;;;;;;;4953864;29;20214;-61
2022/05/14 02:15:57;;;;;;;1.47;1.30;;;;;;;;;;4953352;29;20298;-61
2022/05/14 02:18:26;;;;;;;1.80;0.90;;;;;;;;;;4953638;29;20214;-61
2022/05/14 02:20:53;;;;;;;1.20;1.10;;;;;;;;;;4953283;29;20219;-61
2022/05/14 02:23:20;;;;;;;1.10;1.10;;;;;;;;;;4953214;28;20610;-61
2022/05/14 02:25:47;;;;;;;2.50;1.20;;;;;;;;;;4952888;29;20258;-61
2022/05/14 02:28:15;;;;;;;1.23;1.23;;;;;;;;;;4953384;29;20298;-61
2022/05/14 02:30:42;;;;;;;2.83;1.40;;;;;;;;;;4953056;29;20203;-61
2022/05/14 02:33:09;;;;;;;2.60;1.20;;;;;;;;;;4953069;29;20215;-61
2022/05/14 02:35:37;;;;;;;1.33;1.33;;;;;;;;;;4952700;29;20207;-61
2022/05/14 02:38:05;;;;;;;1.43;1.33;;;;;;;;;;4942600;29;20265;-61
2022/05/14 02:40:32;;;;;;;1.03;1.03;;;;;;;;;;4952949;29;20231;-60
2022/05/14 02:42:59;;;;;;;1.20;1.20;;;;;;;;;;4953143;29;20219;-60
2022/05/14 02:45:26;;;;;;;2.30;1.33;;;;;;;;;;4952734;29;20206;-61
2022/05/14 02:47:53;;;;;;;1.70;1.00;;;;;;;;;;4952778;29;20214;-61
2022/05/14 02:50:21;;;;;;;0.90;0.90;;;;;;;;;;4952621;29;20204;-61
2022/05/14 02:52:49;;;;;;;1.13;0.90;;;;;;;;;;4953101;29;20239;-60
2022/05/14 02:55:16;;;;;;;1.10;1.10;;;;;;;;;;4952237;28;20266;-61
2022/05/14 02:57:43;;;;;;;1.17;1.17;;;;;;;;;;4952646;29;20203;-60
2022/05/14 03:00:12;;;;;;;1.60;1.13;;;;;;;;;;4952603;29;20238;-61
2022/05/14 03:02:39;;;;;;;1.90;1.13;;;;;;;;;;4952571;29;20207;-60
2022/05/14 03:05:07;;;;;;;1.10;1.10;;;;;;;;;;4952309;29;20625;-60
2022/05/14 03:07:34;;;;;;;1.10;1.10;;;;;;;;;;4952847;29;20254;-61
2022/05/14 03:10:02;;;;;;;0.90;0.90;;;;;;;;;;4952345;29;20839;-61
2022/05/14 03:12:30;;;;;;;1.90;1.13;;;;;;;;;;4953213;29;20199;-61
2022/05/14 03:14:57;;;;;;;1.07;1.07;;;;;;;;;;4953168;29;20206;-61
2022/05/14 03:17:24;;;;;;;2.30;1.00;;;;;;;;;;4952685;29;20210;-61
2022/05/14 03:19:52;;;;;;;1.87;1.00;;;;;;;;;;4953007;29;20231;-60
2022/05/14 03:22:19;;;;;;;0.90;0.90;;;;;;;;;;4953192;29;20501;-61
2022/05/14 03:24:46;;;;;;;1.37;1.27;;;;;;;;;;4952455;28;20214;-60
2022/05/14 03:27:15;;;;;;;1.13;1.13;;;;;;;;;;4953317;29;20632;-61
2022/05/14 03:29:42;;;;;;;0.90;0.90;;;;;;;;;;4952443;29;20207;-61
2022/05/14 03:32:10;;;;;;;1.10;1.10;;;;;;;;;;4952941;29;20673;-61
2022/05/14 03:34:37;;;;;;;1.63;1.37;;;;;;;;;;4952273;29;20646;-61
2022/05/14 03:37:04;;;;;;;0.90;0.90;;;;;;;;;;4952701;29;20789;-61
2022/05/14 03:39:31;;;;;;;1.50;1.10;;;;;;;;;;4952627;29;20278;-60
2022/05/14 03:41:58;;;;;;;1.67;0.90;;;;;;;;;;4952641;29;20214;-60
2022/05/14 03:44:27;;;;;;;1.53;1.10;;;;;;;;;;4952495;29;20199;-60
2022/05/14 03:46:54;;;;;;;2.00;1.00;;;;;;;;;;4952466;29;20287;-61
2022/05/14 03:49:21;;;;;;;1.20;0.90;;;;;;;;;;4952059;28;20215;-61
2022/05/14 03:51:48;;;;;;;1.97;1.00;;;;;;;;;;4952459;29;20202;-61
2022/05/14 03:54:15;;;;;;;1.17;1.17;;;;;;;;;;4952140;28;20254;-61
2022/05/14 03:56:42;;;;;;;0.90;0.90;;;;;;;;;;4952340;29;20272;-60
2022/05/14 03:59:09;;;;;;;1.00;1.00;;;;;;;;;;4952223;29;20211;-61
2022/05/14 04:01:38;;;;;;;1.20;1.10;;;;;;;;;;4951324;29;20301;-60
2022/05/14 04:04:05;;;;;;;0.90;0.90;;;;;;;;;;4952219;29;20203;-60
2022/05/14 04:06:32;;;;;;;1.47;0.87;;;;;;;;;;4951532;29;20203;-61
2022/05/14 04:08:59;;;;;;;1.20;1.20;;;;;;;;;;4951927;29;20270;-61
2022/05/14 04:11:27;;;;;;;2.00;1.10;;;;;;;;;;4952178;29;20207;-61
2022/05/14 04:13:56;;;;;;;1.30;1.00;;;;;;;;;;4959940;28;20206;-61
2022/05/14 04:16:23;;;;;;;0.90;0.90;;;;;;;;;;4965106;28;20271;-61
2022/05/14 04:18:51;;;;;;;1.07;0.90;;;;;;;;;;4951937;29;20215;-61
2022/05/14 04:21:19;;;;;;;1.10;0.93;;;;;;;;;;4951536;29;20230;-61
2022/05/14 04:23:46;;;;;;;1.33;1.13;;;;;;;;;;4951569;28;20210;-61
2022/05/14 04:26:13;;;;;;;1.53;1.10;;;;;;;;;;4952170;29;20210;-61
2022/05/14 04:28:40;;;;;;;1.37;1.20;;;;;;;;;;4951134;29;20258;-62
2022/05/14 04:31:07;;;;;;;1.10;1.10;;;;;;;;;;4951848;29;20741;-61
2022/05/14 04:33:34;;;;;;;1.13;1.00;;;;;;;;;;4951577;29;20214;-61
2022/05/14 04:36:03;;;;;;;1.23;1.20;;;;;;;;;;4950631;29;20203;-61
2022/05/14 04:38:30;;;;;;;2.00;1.00;;;;;;;;;;4951607;29;20305;-61
2022/05/14 04:40:57;;;;;;;4.90;1.03;;;;;;;;;;4951991;29;20239;-61
2022/05/14 04:43:24;;;;;;;1.90;1.00;;;;;;;;;;4951352;29;20720;-61
2022/05/14 04:45:51;;;;;;;1.63;0.90;;;;;;;;;;4952030;29;20274;-61
2022/05/14 04:48:18;;;;;;;0.80;0.80;;;;;;;;;;4951141;29;20900;-61
2022/05/14 04:50:45;;;;;;;1.03;1.03;;;;;;;;;;4951635;29;20203;-61
2022/05/14 04:53:14;;;;;;;1.20;1.00;;;;;;;;;;4951307;28;20262;-61
2022/05/14 04:55:41;;;;;;;1.00;1.00;;;;;;;;;;4951294;29;20246;-61
2022/05/14 04:58:08;;;;;;;1.03;1.03;;;;;;;;;;4950924;29;20716;-61
2022/05/14 05:00:36;;;;;;;0.93;0.90;;;;;;;;;;4953020;28;20777;-61
2022/05/14 05:05:54;;;;;;;0.87;0.87;;;;;;;;;;4944807;29;20736;-61
2022/05/14 05:08:23;;;;;;;1.20;1.20;;;;;;;;;;4955359;28;20269;-61
2022/05/14 05:10:50;;;;;;;0.77;0.77;;;;;;;;;;4955010;29;20203;-61
2022/05/14 05:13:19;;;;;;;3.67;1.07;;;;;;;;;;4955431;29;20245;-61
2022/05/14 05:15:46;;;;;;;0.93;0.93;;;;;;;;;;4954867;29;20705;-61
2022/05/14 05:18:13;;;;;;;1.17;1.03;;;;;;;;;;4955449;29;20211;-61
2022/05/14 05:20:42;;;;;;;1.33;1.10;;;;;;;;;;4954689;29;20311;-61
2022/05/14 05:23:11;;;;;;;1.38;1.38;;;;;;;;;;4951538;29;20650;-61
2022/05/14 05:25:40;;;;;;;1.00;1.00;;;;;;;;;;4946887;29;20568;-61
2022/05/14 05:28:07;;;;;;;1.35;1.25;;;;;;;;;;4955258;29;20696;-62
2022/05/14 05:30:34;;;;;;;1.20;1.20;;;;;;;;;;4955092;29;20211;-62
2022/05/14 05:33:02;;;;;;;1.13;1.13;;;;;;;;;;4954579;29;20241;-62
2022/05/14 05:35:29;;;;;;;1.40;1.08;;;;;;;;;;4954945;28;20217;-62
2022/05/14 05:37:57;;;;;;;0.95;0.95;;;;;;;;;;4958662;28;20254;-62
2022/05/14 05:40:24;;;;;;;1.15;1.05;;;;;;;;;;4954965;29;20607;-61
2022/05/14 05:42:52;;;;;;;1.23;0.93;;;;;;;;;;4954904;29;20243;-62
2022/05/14 05:45:20;;;;;;;1.48;1.20;;;;;;;;;;4971391;28;20694;-62
2022/05/14 05:47:47;;;;;;;1.50;1.50;;;;;;;;;;4959423;28;20203;-62
2022/05/14 05:50:14;;;;;;;2.95;1.23;;;;;;;;;;4954945;29;20211;-62
2022/05/14 05:52:41;;;;;;;1.50;1.50;;;;;;;;;;4954388;29;20254;-62
2022/05/14 05:57:55;;;;;;;3.45;1.42;;;;;;;;;;4954781;29;20222;-62
2022/05/14 06:00:24;;;;;;;2.83;1.40;;;;;;;;;;4952150;29;20295;-62
2022/05/14 06:02:51;;;;;;;1.73;1.60;;;;;;;;;;4937475;29;20267;-62
2022/05/14 06:05:18;;;;;;;1.38;1.27;;;;;;;;;;4945386;29;20414;-62
2022/05/14 06:07:57;;;;;;;1.80;1.70;;;;;;;;;;4953668;29;20235;-62
2022/05/14 06:10:25;;;;;;;1.52;1.42;;;;;;;;;;4960735;28;20210;-62
2022/05/14 06:12:52;;;;;;;1.60;1.50;;;;;;;;;;4972639;28;20214;-61
2022/05/14 06:15:21;;;;;;;4.18;2.00;;;;;;;;;;4961074;28;20619;-62
2022/05/14 06:17:48;;;;;;;1.83;1.73;;;;;;;;;;4953342;29;20663;-62
2022/05/14 06:20:16;;;;;;;1.73;1.58;;;;;;;;;;4953493;29;20242;-62
2022/05/14 06:22:43;;;;;;;2.13;1.88;;;;;;;;;;4953118;29;20219;-62
2022/05/14 06:25:10;;;;;;;1.83;1.73;;;;;;;;;;4953267;28;20226;-62
2022/05/14 06:27:37;;;;;;;1.90;1.80;;;;;;;;;;4953402;29;20235;-62
2022/05/14 06:30:05;;;;;;;2.25;1.90;;;;;;;;;;4953326;29;20207;-62
2022/05/14 06:32:33;;;;;;;2.28;2.08;;;;;;;;;;4962680;28;20207;-62
2022/05/14 06:35:00;;;;;;;1.80;1.70;;;;;;;;;;4960002;28;20211;-62
2022/05/14 06:37:27;;;;;;;3.05;1.65;;;;;;;;;;4953188;29;20697;-62
2022/05/14 06:39:54;;;;;;;2.20;1.92;;;;;;;;;;4962530;28;20214;-63
2022/05/14 06:42:21;;;;;;;4.90;1.85;;;;;;;;;;4972567;28;20234;-62
2022/05/14 06:44:48;;;;;;;1.95;1.83;;;;;;;;;;4963078;28;20211;-62
2022/05/14 06:47:16;;;;;;;2.08;1.98;;;;;;;;;;4963024;28;20206;-63
2022/05/14 06:49:44;;;;;;;4.05;1.90;;;;;;;;;;4960512;28;20202;-61
2022/05/14 06:52:13;;;;;;;1.90;1.80;;;;;;;;;;4958083;28;20224;-61
2022/05/14 06:54:41;;;;;;;1.50;1.50;;;;;;;;;;4959958;28;20665;-61
2022/05/14 06:57:09;;;;;;;3.70;1.40;;;;;;;;;;4962982;28;20249;-61
2022/05/14 06:59:36;;;;;;;2.30;1.77;;;;;;;;;;4960904;28;20206;-61
2022/05/14 07:02:03;;;;;;;3.75;1.75;;;;;;;;;;4962073;28;20239;-61
2022/05/14 07:07:17;;;;;;;2.38;1.92;;;;;;;;;;4958902;28;20305;-61
2022/05/14 07:09:44;;;;;;;1.50;1.33;;;;;;;;;;4960552;28;20334;-61
2022/05/14 07:12:12;;;;;;;3.40;1.52;;;;;;;;;;4962888;28;20331;-61
2022/05/14 07:14:41;;;;;;;2.10;1.75;;;;;;;;;;4960751;28;20217;-61
2022/05/14 07:17:09;;;;;;;2.70;1.50;;;;;;;;;;4962392;28;20270;-61
2022/05/14 07:19:36;;;;;;;2.72;1.65;;;;;;;;;;4958469;28;20285;-61
2022/05/14 07:22:03;;;;;;;1.58;1.50;;;;;;;;;;4958843;28;20237;-62
2022/05/14 07:24:32;;;;;;;4.88;1.30;;;;;;;;;;4959817;28;20261;-61
2022/05/14 07:27:01;;;;;;;1.75;1.60;;;;;;;;;;4959673;28;20716;-61
2022/05/14 07:29:29;;;;;;;1.33;1.10;;;;;;;;;;4964117;28;20286;-61
2022/05/14 07:31:56;;;;;;;1.52;1.40;;;;;;;;;;4956629;28;20225;-61
2022/05/14 07:34:23;;;;;;;1.30;1.17;;;;;;;;;;4952421;29;20267;-61
2022/05/14 07:36:52;;;;;;;4.15;1.45;;;;;;;;;;4948584;29;20643;-59
2022/05/14 07:39:20;;;;;;;2.30;1.50;;;;;;;;;;4963352;28;20210;-62
2022/05/14 07:41:53;;;;;;;2.20;1.42;;;;;;;;;;4953439;28;20274;-61
2022/05/14 07:44:21;;;;;;;5.20;1.55;;;;;;;;;;4967910;28;20628;-61
2022/05/14 07:46:49;;;;;;;1.45;1.35;;;;;;;;;;4956670;28;20219;-61
2022/05/14 07:49:17;;;;;;;2.10;1.33;;;;;;;;;;4951156;28;20215;-61
2022/05/14 07:51:44;;;;;;;3.40;1.10;;;;;;;;;;4952259;28;20270;-61
2022/05/14 07:54:11;;;;;;;1.95;1.00;;;;;;;;;;4957121;28;20211;-61
2022/05/14 07:56:40;;;;;;;1.45;0.93;;;;;;;;;;4954198;28;20666;-61
2022/05/14 07:59:08;;;;;;;1.67;1.10;;;;;;;;;;4965165;28;20257;-61
2022/05/14 08:01:36;;;;;;;1.60;1.00;;;;;;;;;;4969808;28;20222;-60
2022/05/14 08:04:03;;;;;;;1.83;1.33;;;;;;;;;;4955455;28;20203;-61
2022/05/14 08:06:30;;;;;;;1.40;0.98;;;;;;;;;;4965898;28;20250;-61
2022/05/14 08:08:57;;;;;;;3.17;0.93;;;;;;;;;;4952453;28;20247;-61
2022/05/14 08:11:24;;;;;;;1.58;0.85;;;;;;;;;;4951991;28;20203;-61
2022/05/14 08:13:53;;;;;;;1.00;0.95;;;;;;;;;;4951261;29;20218;-61
2022/05/14 08:16:22;;;;;;;1.27;0.63;;;;;;;;;;4951809;29;20211;-61
2022/05/14 08:18:49;;;;;;;3.65;1.02;;;;;;;;;;4951411;29;20207;-61
2022/05/14 08:26:46;;;;;;;1.13;0.80;;;;;;;;;;4951897;28;20626;-60
2022/05/14 08:29:13;;;;;;;0.82;0.82;;;;;;;;;;4964640;28;20206;-60
2022/05/14 08:31:41;;;;;;;1.35;1.15;;;;;;;;;;4970755;28;20202;-62
2022/05/14 08:34:08;;;;;;;3.15;1.13;;;;;;;;;;4957971;28;20211;-62
2022/05/14 08:36:36;;;;;;;1.25;0.90;;;;;;;;;;4949404;29;20215;-62
2022/05/14 08:39:12;;;;;;;0.73;0.73;;;;;;;;;;4950984;29;20214;-62
2022/05/14 08:41:42;;;;;;;2.13;0.65;;;;;;;;;;4950910;29;20233;-61
2022/05/14 08:44:10;;;;;;;1.48;1.10;;;;;;;;;;4950448;29;20636;-61
2022/05/14 08:46:40;;;;;;;1.42;0.88;;;;;;;;;;4949175;29;20623;-61
2022/05/14 08:49:10;;;;;;;1.27;0.80;;;;;;;;;;4951182;29;20207;-61
2022/05/14 08:51:38;;;;;;;0.90;0.90;;;;;;;;;;4951109;29;20266;-61
2022/05/14 08:54:06;;;;;;;1.08;0.95;;;;;;;;;;4951096;28;20203;-62
2022/05/14 08:56:38;;;;;;;0.88;0.88;;;;;;;;;;4950814;29;20305;-62
2022/05/14 08:59:20;;;;;;;1.13;0.80;;;;;;;;;;4959566;28;20304;-62
2022/05/14 09:01:48;;;;;;;1.27;0.90;;;;;;;;;;4951570;28;20234;-60
2022/05/14 09:04:18;;;;;;;0.88;0.88;;;;;;;;;;4953283;28;20198;-60
2022/05/14 09:06:45;;;;;;;1.08;0.88;;;;;;;;;;4947236;29;20203;-60
2022/05/14 09:09:13;;;;;;;1.42;0.85;;;;;;;;;;4950602;29;20239;-59
2022/05/14 09:11:41;;;;;;;0.75;0.73;;;;;;;;;;4951352;29;20203;-60
2022/05/14 09:14:19;;;;;;;0.80;0.80;;;;;;;;;;4950867;29;20210;-60
2022/05/14 09:16:50;;;;;;;1.08;0.88;;;;;;;;;;4950803;29;20662;-60
2022/05/14 09:19:20;;;;;;;3.92;0.85;;;;;;;;;;4953116;28;20214;-60
2022/05/14 09:21:50;;;;;;;1.33;1.10;;;;;;;;;;4951260;29;20231;-62
2022/05/14 09:24:18;;;;;;;0.95;0.95;;;;;;;;;;4944397;28;20211;-61
2022/05/14 09:26:48;;;;;;;0.85;0.80;;;;;;;;;;4961314;28;20217;-62
2022/05/14 09:29:18;;;;;;;0.73;0.73;;;;;;;;;;4943209;28;20222;-60
2022/05/14 09:31:53;;;;;;;2.50;1.00;;;;;;;;;;4953655;28;20700;-60
2022/05/14 09:34:22;;;;;;;1.48;1.00;;;;;;;;;;4953568;28;20199;-61
2022/05/14 09:36:51;;;;;;;2.38;1.10;;;;;;;;;;4949821;28;20203;-60
2022/05/14 09:39:19;;;;;;;1.00;0.90;;;;;;;;;;4953147;28;20202;-61
2022/05/14 09:41:47;;;;;;;1.60;1.02;;;;;;;;;;4950091;28;20222;-61
2022/05/14 09:44:16;;;;;;;2.50;1.20;;;;;;;;;;4948310;29;20294;-61
2022/05/14 09:46:44;;;;;;;1.98;0.88;;;;;;;;;;4951905;28;20478;-61
2022/05/14 09:49:19;;;;;;;4.57;1.13;;;;;;;;;;4953913;29;20222;-61
2022/05/14 09:51:51;;;;;;;3.70;0.90;;;;;;;;;;4953455;29;20201;-61
2022/05/14 09:54:21;;;;;;;2.67;0.65;;;;;;;;;;4953551;28;20246;-62
2022/05/14 09:57:15;;;;;;;1.20;1.00;;;;;;;;;;4953811;29;20293;-62
2022/05/14 09:59:53;;;;;;;1.00;1.00;;;;;;;;;;4958800;28;20211;-61
2022/05/14 10:02:26;;;;;;;2.65;0.70;;;;;;;;;;4955118;28;20230;-62
2022/05/14 10:04:58;;;;;;;2.03;0.98;;;;;;;;;;4952876;29;20261;-61
2022/05/14 10:07:35;;;;;;;1.75;0.80;;;;;;;;;;4952824;29;20745;-61
2022/05/14 10:10:08;;;;;;;1.30;0.93;;;;;;;;;;4953093;29;20215;-64
2022/05/14 10:12:38;;;;;;;4.07;1.10;;;;;;;;;;4953408;29;20211;-62
2022/05/14 10:15:10;;;;;;;1.08;0.70;;;;;;;;;;4953742;29;20666;-62
2022/05/14 10:17:41;;;;;;;6.35;0.95;;;;;;;;;;4953438;29;20678;-62
2022/05/14 10:20:14;;;;;;;0.90;0.70;;;;;;;;;;4953086;29;20215;-62
2022/05/14 10:28:32;;;;;;;4.68;0.50;;;;;;;;;;4953562;29;20250;-62
2022/05/14 10:31:02;;;;;;;1.75;1.45;;;;;;;;;;4953100;29;20214;-62
2022/05/14 10:33:32;;;;;;;0.50;0.50;;;;;;;;;;4953395;29;20211;-62
2022/05/14 10:36:01;;;;;;;0.43;0.43;;;;;;;;;;4953144;29;20214;-62
2022/05/14 10:38:33;;;;;;;4.03;1.00;;;;;;;;;;4953234;29;20219;-61
2022/05/14 10:41:02;;;;;;;2.05;0.70;;;;;;;;;;4952967;29;20215;-60
2022/05/14 10:43:35;;;;;;;2.10;0.95;;;;;;;;;;4953084;29;20272;-63
2022/05/14 10:46:04;;;;;;;1.05;0.70;;;;;;;;;;4953011;29;20234;-61
2022/05/14 10:48:35;;;;;;;0.80;0.73;;;;;;;;;;4957406;28;20632;-61
2022/05/14 10:51:03;;;;;;;1.20;0.88;;;;;;;;;;4955707;28;20240;-60
2022/05/14 10:53:32;;;;;;;2.08;0.70;;;;;;;;;;4958942;28;20829;-62
2022/05/14 10:56:02;;;;;;;2.38;0.95;;;;;;;;;;4957155;28;20235;-61
2022/05/14 10:58:37;;;;;;;1.55;1.05;;;;;;;;;;4960969;28;20217;-61
2022/05/14 11:01:07;;;;;;;0.60;0.60;;;;;;;;;;4961263;28;20569;-61
2022/05/14 11:03:36;;;;;;;1.75;0.65;;;;;;;;;;4955103;28;20599;-61
2022/05/14 11:06:13;;;;;;;0.63;0.63;;;;;;;;;;4968795;28;20210;-61
2022/05/14 11:08:43;;;;;;;0.65;0.65;;;;;;;;;;4953607;28;20247;-60
2022/05/14 11:11:18;;;;;;;0.93;0.82;;;;;;;;;;4960410;28;20281;-61
2022/05/14 11:13:57;;;;;;;2.22;1.10;;;;;;;;;;4953404;28;20250;-58
2022/05/14 11:16:24;;;;;;;2.55;0.85;;;;;;;;;;4959508;28;20684;-59
2022/05/14 11:18:52;;;;;;;0.63;0.63;;;;;;;;;;4959947;28;20211;-60
2022/05/14 11:21:22;;;;;;;2.47;0.80;;;;;;;;;;4961473;28;20253;-61
2022/05/14 11:23:54;;;;;;;0.85;0.80;;;;;;;;;;4951803;28;20230;-61
2022/05/14 11:26:28;;;;;;;0.77;0.77;;;;;;;;;;4954527;28;20218;-61
2022/05/14 11:29:00;;;;;;;3.25;0.80;;;;;;;;;;4953527;28;20213;-61
2022/05/14 11:31:29;;;;;;;1.23;0.70;;;;;;;;;;4953644;28;20637;-60
2022/05/14 11:33:57;;;;;;;1.27;0.70;;;;;;;;;;4953082;28;20211;-63
2022/05/14 11:36:26;;;;;;;0.70;0.70;;;;;;;;;;4959264;28;20254;-60
2022/05/14 11:39:09;;;;;;;1.75;0.70;;;;;;;;;;4960543;28;20214;-59
2022/05/14 11:41:38;;;;;;;0.95;0.73;;;;;;;;;;4960790;28;20736;-61
2022/05/14 11:44:06;;;;;;;0.55;0.55;;;;;;;;;;4952492;28;20250;-58
2022/05/14 11:46:35;;;;;;;0.60;0.60;;;;;;;;;;4954232;28;20206;-59
2022/05/14 11:49:04;;;;;;;2.55;0.50;;;;;;;;;;4962761;28;20215;-58
2022/05/14 11:51:37;;;;;;;0.70;0.70;;;;;;;;;;4960206;28;20757;-59
2022/05/14 11:54:08;;;;;;;1.05;0.88;;;;;;;;;;4959834;28;20258;-60
2022/05/14 11:56:40;;;;;;;0.60;0.60;;;;;;;;;;4958054;28;20625;-61
2022/05/14 11:59:11;;;;;;;0.82;0.82;;;;;;;;;;4961204;28;20207;-60
2022/05/14 12:01:40;;;;;;;0.65;0.65;;;;;;;;;;4958801;28;20277;-60
2022/05/14 12:04:11;;;;;;;0.85;0.80;;;;;;;;;;4960792;28;20222;-61
2022/05/14 12:06:52;;;;;;;0.75;0.75;;;;;;;;;;4958874;28;20211;-60
2022/05/14 12:09:30;;;;;;;2.13;0.88;;;;;;;;;;4962804;28;20242;-61
2022/05/14 12:12:01;;;;;;;0.60;0.60;;;;;;;;;;4970810;28;20214;-61
2022/05/14 12:14:32;;;;;;;1.00;0.77;;;;;;;;;;4955128;28;20254;-61
2022/05/14 12:17:00;;;;;;;0.50;0.50;;;;;;;;;;4959492;28;20665;-61
2022/05/14 12:19:31;;;;;;;1.85;0.47;;;;;;;;;;4958375;28;20207;-60
2022/05/14 12:22:00;;;;;;;0.60;0.60;;;;;;;;;;4957370;28;20221;-61
2022/05/14 12:24:30;;;;;;;1.55;0.70;;;;;;;;;;4953677;28;20219;-61
2022/05/14 12:26:57;;;;;;;1.90;0.60;;;;;;;;;;4951494;28;20285;-61
2022/05/14 12:29:25;;;;;;;1.48;0.55;;;;;;;;;;4951717;29;20637;-61
2022/05/14 12:34:48;;;;;;;1.67;0.45;;;;;;;;;;4947673;29;20573;-61
2022/05/14 12:37:21;;;;;;;1.35;0.80;;;;;;;;;;4951199;29;20281;-61
2022/05/14 12:39:51;;;;;;;0.50;0.50;;;;;;;;;;4951291;29;20227;-61
2022/05/14 12:42:22;;;;;;;0.93;0.63;;;;;;;;;;4951085;29;20227;-61
2022/05/14 12:44:51;;;;;;;0.60;0.60;;;;;;;;;;4951585;29;20221;-61
2022/05/14 12:47:22;;;;;;;0.73;0.65;;;;;;;;;;4949570;29;20233;-60
2022/05/14 12:49:49;;;;;;;1.45;0.50;;;;;;;;;;4951111;29;20633;-61
2022/05/14 12:52:17;;;;;;;0.75;0.75;;;;;;;;;;4951085;29;20217;-60
2022/05/14 12:54:51;;;;;;;0.57;0.57;;;;;;;;;;4951258;28;20219;-62
2022/05/14 12:57:19;;;;;;;1.02;0.60;;;;;;;;;;4942498;29;20293;-61
2022/05/14 12:59:46;;;;;;;0.90;0.70;;;;;;;;;;4950502;29;20646;-61
2022/05/14 13:02:16;;;;;;;0.93;0.63;;;;;;;;;;4950702;29;20230;-61
2022/05/14 13:04:48;;;;;;;0.80;0.80;;;;;;;;;;4951113;29;20258;-60
2022/05/14 13:07:16;;;;;;;0.75;0.75;;;;;;;;;;4951053;29;20223;-60
2022/05/14 13:09:43;;;;;;;0.63;0.63;;;;;;;;;;4950843;29;20297;-60
2022/05/14 13:12:18;;;;;;;0.75;0.73;;;;;;;;;;4950717;29;20210;-61
2022/05/14 13:14:50;;;;;;;0.73;0.73;;;;;;;;;;4950104;28;20672;-61
2022/05/14 13:17:17;;;;;;;1.00;0.60;;;;;;;;;;4950253;29;20669;-60
2022/05/14 13:19:45;;;;;;;0.45;0.45;;;;;;;;;;4964013;28;20654;-60
2022/05/14 13:22:13;;;;;;;0.60;0.60;;;;;;;;;;4953570;28;20215;-60
2022/05/14 13:24:40;;;;;;;0.82;0.50;;;;;;;;;;4954818;28;20685;-60
2022/05/14 13:27:10;;;;;;;0.75;0.65;;;;;;;;;;4954424;29;20207;-60
2022/05/14 13:29:40;;;;;;;1.77;0.80;;;;;;;;;;4954483;29;20221;-60
2022/05/14 13:32:12;;;;;;;0.60;0.55;;;;;;;;;;4954694;29;20286;-60
2022/05/14 13:37:27;;;;;;;1.08;0.80;;;;;;;;;;4954747;29;20709;-60
2022/05/14 13:39:55;;;;;;;2.40;0.75;;;;;;;;;;4954110;29;20262;-60
2022/05/14 13:42:23;;;;;;;1.10;0.70;;;;;;;;;;4954102;29;20207;-60
2022/05/14 13:44:55;;;;;;;0.60;0.60;;;;;;;;;;4953879;29;20211;-60
2022/05/14 13:47:23;;;;;;;2.05;0.60;;;;;;;;;;4954290;28;20207;-60
2022/05/14 13:49:55;;;;;;;1.65;0.60;;;;;;;;;;4954199;29;20196;-60
2022/05/14 13:52:26;;;;;;;0.60;0.60;;;;;;;;;;4935398;29;20215;-60
2022/05/14 13:55:01;;;;;;;1.75;0.60;;;;;;;;;;4953927;28;20211;-60
2022/05/14 13:57:29;;;;;;;1.52;0.52;;;;;;;;;;4954340;29;20213;-60
2022/05/14 14:00:05;;;;;;;1.05;0.70;;;;;;;;;;4953246;29;20219;-60
2022/05/14 14:02:32;;;;;;;1.13;0.60;;;;;;;;;;4934869;29;20219;-60
2022/05/14 14:05:01;;;;;;;0.90;0.90;;;;;;;;;;4943917;29;20238;-60
2022/05/14 14:07:29;;;;;;;0.85;0.63;;;;;;;;;;4953390;29;20667;-60
2022/05/14 14:09:56;;;;;;;2.63;0.77;;;;;;;;;;4952910;29;20286;-60
2022/05/14 14:12:24;;;;;;;0.75;0.75;;;;;;;;;;4953423;29;20262;-59
2022/05/14 14:14:51;;;;;;;2.33;1.10;;;;;;;;;;4952855;29;20294;-60
2022/05/14 14:17:20;;;;;;;2.17;0.80;;;;;;;;;;4953225;29;20211;-59
2022/05/14 14:19:47;;;;;;;0.80;0.80;;;;;;;;;;4952958;28;20211;-60
2022/05/14 14:22:14;;;;;;;0.70;0.70;;;;;;;;;;4952814;29;20203;-61
2022/05/14 14:24:48;;;;;;;1.15;0.80;;;;;;;;;;4952744;28;20988;-59
2022/05/14 14:27:15;;;;;;;1.42;1.42;;;;;;;;;;4950902;29;20238;-60
2022/05/14 14:29:42;;;;;;;0.90;0.90;;;;;;;;;;4953235;29;20286;-59
2022/05/14 14:32:10;;;;;;;2.10;1.30;;;;;;;;;;4952755;28;20234;-59
2022/05/14 14:34:38;;;;;;;4.00;0.80;;;;;;;;;;4953073;29;20281;-60
2022/05/14 14:37:05;;;;;;;0.70;0.70;;;;;;;;;;4952201;29;20294;-60
2022/05/14 14:39:33;;;;;;;1.10;0.85;;;;;;;;;;4952206;29;20661;-59
2022/05/14 14:42:00;;;;;;;2.83;0.70;;;;;;;;;;4952665;29;20215;-60
2022/05/14 14:44:29;;;;;;;0.60;0.60;;;;;;;;;;4952442;29;20281;-63
2022/05/14 14:46:58;;;;;;;0.80;0.80;;;;;;;;;;4952639;29;20210;-61
2022/05/14 14:49:25;;;;;;;0.90;0.70;;;;;;;;;;4952725;29;20298;-62
2022/05/14 14:51:54;;;;;;;0.70;0.70;;;;;;;;;;4951598;28;21037;-61
2022/05/14 14:54:21;;;;;;;2.72;0.80;;;;;;;;;;4952529;28;20239;-61
2022/05/14 14:56:48;;;;;;;0.80;0.80;;;;;;;;;;4951453;29;20231;-60
2022/05/14 14:59:15;;;;;;;0.98;0.90;;;;;;;;;;4938540;29;20305;-60
2022/05/14 15:01:46;;;;;;;1.73;0.90;;;;;;;;;;4950485;29;20211;-60
2022/05/14 15:04:15;;;;;;;0.70;0.70;;;;;;;;;;4951881;29;20227;-59
2022/05/14 15:06:42;;;;;;;0.77;0.70;;;;;;;;;;4951809;28;20681;-59
2022/05/14 15:09:10;;;;;;;1.15;0.80;;;;;;;;;;4952393;29;20239;-59
2022/05/14 15:11:39;;;;;;;1.38;0.80;;;;;;;;;;4951930;29;20222;-59
2022/05/14 15:14:07;;;;;;;0.93;0.70;;;;;;;;;;4950794;29;20204;-59
2022/05/14 15:16:34;;;;;;;1.38;0.55;;;;;;;;;;4951485;29;20273;-64
2022/05/14 15:19:01;;;;;;;1.75;0.70;;;;;;;;;;4950120;29;20670;-60
2022/05/14 15:21:29;;;;;;;1.10;0.63;;;;;;;;;;4953098;29;20231;-60